createdAt,value
2018-08-30T00:00:56.956Z,99.90
2018-08-30T00:03:25.466Z,99.90
2018-08-30T00:05:53.450Z,99.90
2018-08-30T00:08:23.590Z,99.90
2018-08-30T00:10:51.730Z,99.90
2018-08-30T00:13:20.023Z,99.90
2018-08-30T00:15:48.044Z,99.90
2018-08-30T00:18:16.049Z,99.90
2018-08-30T00:20:43.885Z,99.90
2018-08-30T00:23:11.744Z,99.90
2018-08-30T00:25:39.710Z,99.90
2018-08-30T00:28:07.710Z,99.90
2018-08-30T00:30:35.762Z,99.90
2018-08-30T00:33:03.642Z,99.90
2018-08-30T00:35:31.642Z,99.90
2018-08-30T00:37:59.519Z,99.90
2018-08-30T00:40:27.425Z,99.90
2018-08-30T00:42:55.358Z,99.90
2018-08-30T00:45:23.436Z,99.90
2018-08-30T00:47:51.382Z,99.90
2018-08-30T00:50:19.282Z,99.90
2018-08-30T00:52:47.230Z,99.90
2018-08-30T00:55:15.158Z,99.90
2018-08-30T00:57:43.554Z,99.90
2018-08-30T01:00:11.470Z,99.90
2018-08-30T01:02:39.422Z,99.90
2018-08-30T01:05:07.578Z,99.90
2018-08-30T01:07:35.816Z,99.90
2018-08-30T01:10:03.919Z,99.90
2018-08-30T01:12:31.811Z,99.90
2018-08-30T01:14:59.728Z,99.90
2018-08-30T01:17:27.664Z,99.90
2018-08-30T01:19:55.566Z,99.90
2018-08-30T01:22:23.532Z,99.90
2018-08-30T01:24:51.566Z,99.90
2018-08-30T01:27:19.556Z,99.90
2018-08-30T01:29:47.434Z,99.90
2018-08-30T01:32:15.540Z,99.90
2018-08-30T01:34:43.438Z,99.90
2018-08-30T01:37:11.327Z,99.90
2018-08-30T01:39:39.240Z,99.90
2018-08-30T01:42:07.220Z,99.90
2018-08-30T01:44:35.146Z,99.90
2018-08-30T01:47:03.530Z,99.90
2018-08-30T01:49:31.639Z,99.90
2018-08-30T01:51:59.960Z,99.90
2018-08-30T01:54:28.080Z,99.90
2018-08-30T01:56:56.103Z,99.90
2018-08-30T01:59:24.230Z,99.90
2018-08-30T02:01:52.211Z,99.90
2018-08-30T02:04:20.142Z,99.90
2018-08-30T02:06:47.983Z,99.90
2018-08-30T02:09:15.836Z,99.90
2018-08-30T02:11:43.808Z,99.90
2018-08-30T02:14:12.360Z,99.90
2018-08-30T02:16:40.452Z,99.90
2018-08-30T02:19:08.358Z,99.90
2018-08-30T02:21:36.226Z,99.90
2018-08-30T02:24:04.012Z,99.90
2018-08-30T02:26:31.859Z,99.90
2018-08-30T02:28:59.728Z,99.90
2018-08-30T02:31:27.596Z,99.90
2018-08-30T02:33:55.400Z,99.90
2018-08-30T02:36:23.238Z,99.90
2018-08-30T02:38:51.056Z,99.90
2018-08-30T02:41:18.854Z,99.90
2018-08-30T02:43:46.704Z,99.90
2018-08-30T02:46:14.517Z,99.90
2018-08-30T02:48:42.327Z,99.90
2018-08-30T02:51:10.195Z,99.90
2018-08-30T02:53:38.021Z,99.90
2018-08-30T02:56:05.938Z,99.90
2018-08-30T02:58:34.085Z,99.90
2018-08-30T03:01:01.880Z,99.90
2018-08-30T03:03:29.705Z,99.90
2018-08-30T03:05:57.602Z,99.90
2018-08-30T03:08:25.450Z,99.90
2018-08-30T03:10:53.353Z,99.90
2018-08-30T03:13:21.250Z,99.90
2018-08-30T03:15:49.144Z,99.90
2018-08-30T03:18:17.043Z,99.90
2018-08-30T03:20:44.836Z,99.90
2018-08-30T03:23:12.719Z,99.90
2018-08-30T03:25:40.587Z,99.90
2018-08-30T03:28:08.514Z,99.90
2018-08-30T03:30:36.429Z,99.90
2018-08-30T03:33:04.368Z,99.90
2018-08-30T03:35:32.248Z,99.90
2018-08-30T03:38:00.090Z,99.90
2018-08-30T03:40:27.960Z,99.90
2018-08-30T03:42:55.758Z,99.90
2018-08-30T03:45:23.552Z,99.90
2018-08-30T03:47:51.364Z,99.90
2018-08-30T03:50:19.160Z,99.90
2018-08-30T03:52:46.994Z,99.90
2018-08-30T03:55:14.845Z,99.90
2018-08-30T03:57:42.766Z,99.90
2018-08-30T04:00:10.716Z,99.90
2018-08-30T04:02:38.557Z,99.90
2018-08-30T04:05:06.385Z,99.90
2018-08-30T04:07:34.146Z,99.90
2018-08-30T04:10:02.004Z,99.90
2018-08-30T04:12:29.820Z,99.90
2018-08-30T04:14:57.624Z,99.90
2018-08-30T04:17:25.588Z,99.90
2018-08-30T04:19:53.480Z,99.90
2018-08-30T04:22:21.472Z,99.90
2018-08-30T04:24:49.437Z,99.90
2018-08-30T04:27:19.364Z,99.90
2018-08-30T04:29:47.211Z,99.90
2018-08-30T04:32:15.041Z,99.90
2018-08-30T04:34:42.911Z,99.90
2018-08-30T04:37:10.734Z,99.90
2018-08-30T04:39:38.634Z,99.90
2018-08-30T04:42:06.526Z,99.90
2018-08-30T04:44:34.392Z,99.90
2018-08-30T04:47:02.536Z,99.90
2018-08-30T04:49:30.490Z,99.90
2018-08-30T04:51:58.504Z,99.90
2018-08-30T04:54:26.616Z,99.90
2018-08-30T04:56:54.656Z,99.90
2018-08-30T04:59:22.732Z,99.90
2018-08-30T05:01:50.735Z,99.90
2018-08-30T05:04:18.670Z,99.90
2018-08-30T05:06:46.644Z,99.90
2018-08-30T05:09:14.775Z,99.90
2018-08-30T05:11:42.724Z,99.90
2018-08-30T05:14:10.802Z,99.90
2018-08-30T05:16:38.856Z,99.90
2018-08-30T05:19:06.848Z,99.90
2018-08-30T05:21:35.451Z,99.90
2018-08-30T05:24:03.491Z,99.90
2018-08-30T05:26:31.632Z,99.90
2018-08-30T05:28:59.493Z,99.90
2018-08-30T05:31:28.312Z,99.90
2018-08-30T05:33:56.199Z,99.90
2018-08-30T05:36:24.212Z,99.90
2018-08-30T05:38:52.205Z,99.90
2018-08-30T05:41:20.177Z,99.90
2018-08-30T05:43:48.143Z,99.90
2018-08-30T05:46:16.051Z,99.90
2018-08-30T05:48:43.922Z,99.90
2018-08-30T05:51:11.865Z,99.90
2018-08-30T05:53:39.724Z,99.90
2018-08-30T05:56:07.832Z,99.90
2018-08-30T05:58:35.916Z,99.90
2018-08-30T06:01:03.955Z,99.90
2018-08-30T06:03:31.841Z,99.90
2018-08-30T06:05:59.770Z,99.90
2018-08-30T06:08:27.688Z,99.90
2018-08-30T06:10:55.435Z,99.90
2018-08-30T06:13:23.290Z,99.90
2018-08-30T06:15:51.197Z,99.90
2018-08-30T06:18:19.036Z,99.90
2018-08-30T06:20:46.815Z,99.90
2018-08-30T06:23:14.616Z,99.90
2018-08-30T06:25:42.508Z,99.90
2018-08-30T06:28:10.341Z,99.90
2018-08-30T06:30:38.162Z,99.90
2018-08-30T06:33:06.021Z,99.90
2018-08-30T06:35:33.972Z,99.90
2018-08-30T06:38:01.934Z,99.90
2018-08-30T06:40:29.808Z,99.90
2018-08-30T06:42:57.659Z,99.90
2018-08-30T06:45:25.581Z,99.90
2018-08-30T06:47:53.467Z,99.90
2018-08-30T06:50:21.411Z,99.90
2018-08-30T06:52:49.289Z,99.90
2018-08-30T06:55:17.135Z,99.90
2018-08-30T06:57:44.989Z,99.90
2018-08-30T07:00:12.787Z,99.90
2018-08-30T07:02:40.607Z,99.90
2018-08-30T07:05:08.600Z,99.90
2018-08-30T07:07:36.394Z,99.90
2018-08-30T07:10:04.693Z,99.90
2018-08-30T07:12:32.526Z,99.90
2018-08-30T07:15:00.520Z,99.90
2018-08-30T07:17:28.344Z,99.90
2018-08-30T07:19:56.712Z,99.90
2018-08-30T07:22:24.694Z,99.90
2018-08-30T07:24:52.589Z,99.90
2018-08-30T07:27:21.783Z,99.90
2018-08-30T07:29:49.816Z,99.90
2018-08-30T07:32:17.865Z,99.90
2018-08-30T07:34:45.930Z,99.90
2018-08-30T07:37:13.837Z,99.90
2018-08-30T07:39:41.801Z,99.90
2018-08-30T07:42:09.717Z,99.90
2018-08-30T07:44:37.630Z,99.90
2018-08-30T07:47:05.857Z,99.90
2018-08-30T07:49:33.788Z,99.90
2018-08-30T07:52:01.916Z,99.90
2018-08-30T07:54:30.000Z,99.90
2018-08-30T07:56:57.993Z,99.90
2018-08-30T07:59:26.015Z,99.90
2018-08-30T08:01:54.098Z,99.90
2018-08-30T08:04:22.022Z,99.90
2018-08-30T08:06:49.905Z,99.90
2018-08-30T08:09:17.868Z,99.90
2018-08-30T08:11:45.822Z,99.90
2018-08-30T08:14:13.885Z,99.90
2018-08-30T08:16:41.872Z,99.90
2018-08-30T08:19:09.877Z,99.90
2018-08-30T08:21:37.932Z,99.90
2018-08-30T08:24:05.935Z,99.90
2018-08-30T08:26:33.885Z,99.90
2018-08-30T08:29:01.734Z,99.90
2018-08-30T08:31:29.636Z,99.90
2018-08-30T08:33:57.644Z,99.90
2018-08-30T08:36:25.555Z,99.90
2018-08-30T08:38:53.444Z,99.90
2018-08-30T08:41:21.271Z,99.90
2018-08-30T08:43:49.102Z,99.90
2018-08-30T08:46:17.058Z,99.90
2018-08-30T08:48:44.989Z,99.90
2018-08-30T08:51:13.195Z,99.90
2018-08-30T08:53:41.077Z,99.90
2018-08-30T08:56:09.183Z,99.90
2018-08-30T08:58:37.165Z,99.90
2018-08-30T09:01:05.201Z,99.90
2018-08-30T09:03:33.157Z,99.90
2018-08-30T09:06:01.054Z,99.90
2018-08-30T09:08:28.996Z,99.90
2018-08-30T09:10:56.814Z,99.90
2018-08-30T09:13:24.971Z,99.90
2018-08-30T09:15:53.023Z,99.90
2018-08-30T09:18:21.074Z,99.90
2018-08-30T09:20:48.970Z,99.90
2018-08-30T09:23:16.946Z,99.90
2018-08-30T09:25:44.960Z,99.90
2018-08-30T09:28:13.058Z,99.90
2018-08-30T09:30:41.072Z,99.90
2018-08-30T09:33:09.053Z,99.90
2018-08-30T09:35:37.099Z,99.90
2018-08-30T09:38:04.988Z,99.70
2018-08-30T09:40:32.853Z,99.90
2018-08-30T09:43:00.728Z,94.80
2018-08-30T09:45:28.594Z,97.00
2018-08-30T09:47:56.583Z,97.40
2018-08-30T09:50:24.549Z,93.80
2018-08-30T09:52:52.388Z,93.60
2018-08-30T09:55:20.249Z,94.60
2018-08-30T09:57:48.153Z,93.60
2018-08-30T10:00:21.613Z,93.80
2018-08-30T10:02:49.996Z,89.00
2018-08-30T10:05:18.410Z,91.20
2018-08-30T10:07:46.291Z,91.60
2018-08-30T10:10:14.370Z,90.60
2018-08-30T10:12:42.328Z,90.20
2018-08-30T10:15:10.400Z,90.10
2018-08-30T10:17:38.405Z,90.20
2018-08-30T10:20:06.506Z,87.50
2018-08-30T10:22:41.008Z,88.90
2018-08-30T10:25:09.026Z,88.30
2018-08-30T10:27:37.204Z,90.50
2018-08-30T10:30:05.227Z,91.70
2018-08-30T10:32:33.532Z,91.20
2018-08-30T10:35:01.531Z,92.00
2018-08-30T10:37:29.469Z,93.50
2018-08-30T10:39:57.452Z,92.40
2018-08-30T10:42:25.289Z,92.90
2018-08-30T10:44:53.185Z,92.10
2018-08-30T10:47:21.169Z,89.40
2018-08-30T10:49:49.103Z,83.10
2018-08-30T10:52:17.039Z,80.50
2018-08-30T10:54:44.989Z,82.40
2018-08-30T10:57:12.918Z,85.40
2018-08-30T10:59:40.873Z,85.00
2018-08-30T11:02:08.892Z,84.10
2018-08-30T11:04:36.948Z,82.30
2018-08-30T11:07:04.979Z,78.40
2018-08-30T11:09:32.899Z,79.10
2018-08-30T11:12:00.733Z,79.20
2018-08-30T11:14:28.777Z,75.70
2018-08-30T11:16:56.715Z,75.10
2018-08-30T11:19:24.712Z,80.00
2018-08-30T11:21:52.657Z,75.50
2018-08-30T11:24:20.541Z,74.30
2018-08-30T11:26:48.403Z,73.90
2018-08-30T11:29:16.279Z,78.60
2018-08-30T11:31:44.183Z,77.40
2018-08-30T11:34:12.182Z,73.70
2018-08-30T11:36:40.007Z,70.10
2018-08-30T11:39:08.588Z,71.30
2018-08-30T11:41:37.029Z,70.00
2018-08-30T11:44:04.903Z,70.20
2018-08-30T11:46:32.768Z,70.90
2018-08-30T11:49:00.569Z,73.50
2018-08-30T11:51:28.581Z,75.20
2018-08-30T11:53:56.411Z,75.20
2018-08-30T11:56:25.687Z,73.30
2018-08-30T11:58:53.689Z,69.10
2018-08-30T12:01:21.779Z,71.50
2018-08-30T12:03:51.124Z,68.20
2018-08-30T12:08:45.573Z,66.90
2018-08-30T12:11:13.564Z,67.80
2018-08-30T12:13:41.379Z,69.00
2018-08-30T12:16:09.431Z,68.70
2018-08-30T12:18:37.645Z,66.90
2018-08-30T12:21:05.671Z,70.90
2018-08-30T12:23:33.522Z,66.90
2018-08-30T12:26:21.823Z,67.20
2018-08-30T12:28:55.573Z,65.40
2018-08-30T12:31:27.036Z,62.30
2018-08-30T12:33:59.730Z,64.40
2018-08-30T12:39:37.522Z,64.00
2018-08-30T12:42:13.319Z,61.90
2018-08-30T12:44:46.084Z,61.30
2018-08-30T12:47:19.036Z,62.10
2018-08-30T12:50:06.121Z,63.10
2018-08-30T12:52:38.538Z,64.20
2018-08-30T12:55:06.494Z,60.70
2018-08-30T12:57:42.063Z,60.70
2018-08-30T13:00:19.651Z,60.20
2018-08-30T13:03:00.342Z,60.00
2018-08-30T13:05:28.459Z,61.10
2018-08-30T13:07:56.398Z,60.80
2018-08-30T13:10:24.623Z,62.40
2018-08-30T13:12:52.778Z,65.10
2018-08-30T13:15:20.856Z,64.90
2018-08-30T13:17:48.571Z,65.70
2018-08-30T13:20:18.983Z,61.60
2018-08-30T13:22:47.041Z,59.60
2018-08-30T13:25:21.825Z,62.30
2018-08-30T13:30:54.224Z,58.50
2018-08-30T13:33:30.445Z,58.30
2018-08-30T13:36:07.040Z,58.20
2018-08-30T13:38:41.639Z,60.40
2018-08-30T13:41:12.964Z,58.60
2018-08-30T13:43:51.720Z,58.50
2018-08-30T13:46:19.628Z,58.20
2018-08-30T13:49:02.627Z,58.80
2018-08-30T13:51:30.547Z,62.50
2018-08-30T13:53:59.038Z,63.00
2018-08-30T13:56:37.749Z,62.90
2018-08-30T13:59:09.442Z,60.70
2018-08-30T14:04:27.362Z,59.10
2018-08-30T14:07:09.124Z,58.20
2018-08-30T14:09:40.140Z,58.70
2018-08-30T14:12:08.739Z,58.00
2018-08-30T14:14:36.738Z,58.60
2018-08-30T14:17:05.205Z,54.40
2018-08-30T14:19:33.563Z,53.10
2018-08-30T14:22:01.903Z,54.10
2018-08-30T14:24:30.179Z,54.30
2018-08-30T14:26:58.434Z,55.10
2018-08-30T14:29:26.499Z,56.10
2018-08-30T14:31:54.793Z,55.40
2018-08-30T14:34:22.927Z,57.70
2018-08-30T14:36:51.146Z,55.50
2018-08-30T14:39:19.518Z,53.30
2018-08-30T14:41:47.675Z,55.30
2018-08-30T14:44:15.907Z,55.20
2018-08-30T14:46:44.269Z,54.70
2018-08-30T14:49:12.578Z,54.60
2018-08-30T14:51:41.123Z,55.10
2018-08-30T14:54:09.746Z,53.90
2018-08-30T14:56:38.033Z,53.40
2018-08-30T14:59:06.125Z,53.70
2018-08-30T15:01:34.447Z,55.70
2018-08-30T15:04:02.847Z,56.70
2018-08-30T15:06:31.076Z,56.00
2018-08-30T15:08:59.677Z,55.30
2018-08-30T15:11:27.790Z,54.70
2018-08-30T15:13:55.699Z,55.10
2018-08-30T15:16:23.601Z,54.60
2018-08-30T15:18:51.586Z,54.20
2018-08-30T15:21:19.541Z,55.30
2018-08-30T15:23:47.524Z,56.90
2018-08-30T15:26:15.341Z,58.80
2018-08-30T15:28:43.319Z,55.40
2018-08-30T15:31:11.333Z,55.80
2018-08-30T15:33:39.457Z,56.30
2018-08-30T15:36:07.402Z,55.80
2018-08-30T15:38:35.451Z,56.20
2018-08-30T15:41:03.526Z,56.50
2018-08-30T15:43:31.627Z,57.40
2018-08-30T15:45:59.565Z,57.60
2018-08-30T15:48:27.582Z,55.60
2018-08-30T15:50:55.590Z,55.60
2018-08-30T15:53:23.662Z,58.20
2018-08-30T15:55:51.637Z,58.50
2018-08-30T15:58:21.958Z,57.90
2018-08-30T16:00:50.091Z,57.70
2018-08-30T16:03:18.216Z,57.70
2018-08-30T16:05:46.206Z,58.30
2018-08-30T16:08:14.476Z,58.20
2018-08-30T16:10:42.611Z,57.50
2018-08-30T16:13:11.566Z,58.30
2018-08-30T16:15:39.518Z,57.30
2018-08-30T16:18:08.583Z,58.20
2018-08-30T16:20:36.985Z,56.60
2018-08-30T16:23:28.773Z,54.50
2018-08-30T16:25:57.146Z,54.60
2018-08-30T16:28:26.227Z,54.90
2018-08-30T16:30:54.440Z,54.90
2018-08-30T16:33:22.877Z,55.50
2018-08-30T16:35:51.331Z,56.00
2018-08-30T16:38:19.786Z,55.20
2018-08-30T16:40:48.235Z,55.40
2018-08-30T16:43:16.507Z,54.00
2018-08-30T16:45:45.341Z,55.30
2018-08-30T16:48:13.989Z,56.40
2018-08-30T16:50:42.444Z,57.20
2018-08-30T16:53:11.229Z,55.80
2018-08-30T16:55:39.969Z,56.60
2018-08-30T16:58:09.092Z,57.30
2018-08-30T17:00:37.821Z,57.50
2018-08-30T17:03:06.665Z,55.80
2018-08-30T17:05:34.914Z,55.20
2018-08-30T17:08:03.459Z,56.70
2018-08-30T17:10:32.113Z,57.60
2018-08-30T17:13:00.586Z,58.20
2018-08-30T17:15:29.150Z,58.40
2018-08-30T17:17:57.818Z,59.00
2018-08-30T17:20:39.789Z,59.00
2018-08-30T17:23:08.760Z,59.60
2018-08-30T17:25:37.410Z,60.00
2018-08-30T17:28:06.146Z,62.00
2018-08-30T17:30:34.617Z,62.30
2018-08-30T17:33:03.522Z,62.70
2018-08-30T17:35:32.277Z,63.70
2018-08-30T17:38:00.658Z,64.20
2018-08-30T17:40:29.182Z,64.20
2018-08-30T17:42:57.592Z,64.20
2018-08-30T17:45:26.233Z,63.90
2018-08-30T17:47:54.749Z,63.90
2018-08-30T17:50:23.276Z,64.20
2018-08-30T17:52:51.756Z,63.50
2018-08-30T17:55:20.358Z,64.30
2018-08-30T17:57:48.931Z,64.70
2018-08-30T18:00:17.649Z,66.20
2018-08-30T18:02:46.862Z,70.40
2018-08-30T18:05:15.574Z,70.30
2018-08-30T18:07:44.726Z,69.70
2018-08-30T18:10:13.271Z,71.10
2018-08-30T18:12:41.868Z,70.80
2018-08-30T18:15:12.768Z,71.00
2018-08-30T18:17:41.418Z,73.30
2018-08-30T18:20:10.133Z,73.30
2018-08-30T18:22:38.597Z,74.80
2018-08-30T18:25:07.560Z,76.20
2018-08-30T18:27:36.169Z,74.90
2018-08-30T18:30:05.463Z,77.00
2018-08-30T18:32:34.196Z,76.60
2018-08-30T18:35:02.593Z,79.40
2018-08-30T18:37:31.057Z,82.50
2018-08-30T18:39:59.536Z,79.60
2018-08-30T18:42:28.215Z,80.90
2018-08-30T18:44:56.453Z,82.60
2018-08-30T18:47:24.940Z,84.90
2018-08-30T18:49:53.359Z,89.10
2018-08-30T18:52:21.486Z,87.80
2018-08-30T18:54:49.708Z,87.20
2018-08-30T18:57:17.818Z,88.00
2018-08-30T18:59:46.429Z,91.30
2018-08-30T19:02:14.585Z,91.30
2018-08-30T19:04:42.782Z,91.00
2018-08-30T19:07:11.186Z,91.90
2018-08-30T19:09:39.546Z,94.00
2018-08-30T19:12:07.646Z,96.40
2018-08-30T19:14:38.558Z,97.10
2018-08-30T19:17:12.521Z,97.30
2018-08-30T19:19:40.760Z,96.90
2018-08-30T19:22:08.730Z,99.90
2018-08-30T19:24:42.517Z,99.90
2018-08-30T19:27:10.445Z,99.90
2018-08-30T19:30:44.740Z,99.90
2018-08-30T19:33:12.633Z,99.90
2018-08-30T19:35:46.352Z,99.90
2018-08-30T19:38:14.406Z,99.90
2018-08-30T19:40:48.109Z,99.90
2018-08-30T19:43:16.381Z,99.90
2018-08-30T19:45:44.432Z,99.90
2018-08-30T19:48:12.799Z,99.90
2018-08-30T19:50:41.222Z,99.90
2018-08-30T19:53:09.664Z,99.90
2018-08-30T19:55:37.968Z,99.90
2018-08-30T19:58:06.456Z,99.90
2018-08-30T20:00:34.969Z,99.90
2018-08-30T20:03:03.350Z,99.90
2018-08-30T20:05:31.832Z,99.90
2018-08-30T20:08:00.304Z,99.90
2018-08-30T20:10:28.835Z,99.90
2018-08-30T20:12:57.421Z,99.90
2018-08-30T20:15:25.893Z,99.90
2018-08-30T20:17:54.434Z,99.90
2018-08-30T20:20:22.999Z,99.90
2018-08-30T20:22:51.557Z,99.90
2018-08-30T20:25:20.010Z,99.90
2018-08-30T20:27:48.460Z,99.90
2018-08-30T20:30:17.308Z,99.90
2018-08-30T20:32:45.928Z,99.90
2018-08-30T20:35:14.515Z,99.90
2018-08-30T20:37:42.805Z,99.90
2018-08-30T20:40:11.448Z,99.90
2018-08-30T20:42:40.141Z,99.90
2018-08-30T20:45:08.405Z,99.90
2018-08-30T20:47:36.788Z,99.90
2018-08-30T20:50:05.367Z,99.90
2018-08-30T20:52:33.875Z,99.90
2018-08-30T20:55:02.428Z,99.90
2018-08-30T20:57:31.127Z,99.90
2018-08-30T20:59:59.817Z,99.90
2018-08-30T21:02:28.310Z,99.90
2018-08-30T21:04:56.745Z,99.90
2018-08-30T21:07:25.268Z,99.90
2018-08-30T21:09:53.516Z,99.90
2018-08-30T21:12:21.723Z,99.90
2018-08-30T21:14:50.770Z,99.90
2018-08-30T21:17:20.442Z,99.90
2018-08-30T21:19:50.226Z,99.90
2018-08-30T21:22:19.393Z,99.90
2018-08-30T21:24:48.684Z,99.90
2018-08-30T21:27:18.534Z,99.90
2018-08-30T21:29:47.550Z,99.90
2018-08-30T21:32:16.540Z,99.90
2018-08-30T21:34:46.207Z,99.90
2018-08-30T21:37:14.698Z,99.90
2018-08-30T21:39:43.416Z,99.90
2018-08-30T21:42:11.952Z,99.90
2018-08-30T21:44:40.556Z,99.90
2018-08-30T21:47:09.242Z,99.90
2018-08-30T21:49:37.750Z,99.90
2018-08-30T21:52:06.038Z,99.90
2018-08-30T21:54:34.386Z,99.90
2018-08-30T21:57:02.517Z,99.90
2018-08-30T21:59:30.646Z,99.90
2018-08-30T22:01:59.021Z,99.90
2018-08-30T22:04:27.444Z,99.90
2018-08-30T22:06:55.626Z,99.90
2018-08-30T22:09:24.323Z,99.90
2018-08-30T22:11:52.684Z,99.90
2018-08-30T22:14:21.054Z,99.90
2018-08-30T22:16:49.077Z,99.90
2018-08-30T22:19:17.241Z,99.90
2018-08-30T22:21:45.406Z,99.90
2018-08-30T22:24:13.530Z,99.90
2018-08-30T22:26:41.852Z,99.90
2018-08-30T22:29:10.382Z,99.90
2018-08-30T22:31:45.168Z,99.90
2018-08-30T22:34:13.484Z,99.90
2018-08-30T22:36:41.868Z,99.90
2018-08-30T22:39:10.133Z,99.90
2018-08-30T22:41:38.751Z,99.90
2018-08-30T22:44:07.156Z,99.90
2018-08-30T22:46:35.249Z,99.90
2018-08-30T22:49:03.348Z,99.90
2018-08-30T22:51:31.486Z,99.90
2018-08-30T22:53:59.616Z,99.90
2018-08-30T22:56:28.046Z,99.90
2018-08-30T22:58:56.147Z,99.90
2018-08-30T23:01:24.171Z,99.90
2018-08-30T23:03:52.330Z,99.90
2018-08-30T23:06:20.521Z,99.90
2018-08-30T23:08:48.536Z,99.90
2018-08-30T23:11:16.693Z,99.90
2018-08-30T23:13:44.797Z,99.90
2018-08-30T23:16:12.948Z,99.90
2018-08-30T23:18:40.982Z,99.90
2018-08-30T23:21:09.116Z,99.90
2018-08-30T23:23:37.252Z,99.90
2018-08-30T23:26:05.516Z,99.90
2018-08-30T23:28:33.751Z,99.90
2018-08-30T23:31:02.379Z,99.90
2018-08-30T23:33:30.827Z,99.90
2018-08-30T23:35:59.251Z,99.90
2018-08-30T23:38:27.413Z,99.90
2018-08-30T23:40:55.440Z,99.90
2018-08-30T23:43:23.572Z,99.90
2018-08-30T23:45:51.907Z,99.90
2018-08-30T23:48:20.046Z,99.90
2018-08-30T23:50:48.348Z,99.90
2018-08-30T23:53:16.673Z,99.90
2018-08-30T23:55:45.052Z,99.90
2018-08-30T23:58:24.481Z,99.90
